Decoded Metar for OIFM (ESFAHAN in IRAN) (IATA:N/A) | Meteo·Mobile Aviation Weather
aviador You're here:

OIFM Decoded Metar

ESFAHAN in IRAN
Report Time2019-09-17 01:00:00
UTC Time2019-09-17 01:12:38
Flight Rules vfr VFR
Wind270° at 04 kt
W.Decomp.*RWY 26: 4.0 kt HW 0.6 kt RCW
Visibility9999 m
Phenomena:N/A
Clouds:N/A
Expected CloudBase > 5,600 ft AGL from Temp-Dew spread
CeilingNone
Temp12°C (ISA +7)
Dew Point-2°C (38% RH)
AAT8.3°C
QNH1023 hPa
Density Alt5,630 ft
Elevation5,059 ft
Report Wrong Elevation
Raw Report
METAR OIFM 170100Z 27004KT CAVOK 12/M02 Q1023 A3022=

Extra information for OIFM:More info

Metar Taf Metar & Taf Last 4 Metars F.Rules Stats Wind Profile Meteogram Temp Stats Airport Information Weather charts Add Link Nearby VenuesMetar ALERT Operation Metar Decoded Social comments